createdAt,value
2023-02-03T00:02:00.736Z,2.12
2023-02-03T00:04:27.563Z,2.16
2023-02-03T00:06:54.505Z,2.22
2023-02-03T00:09:21.445Z,2.28
2023-02-03T00:11:48.276Z,2.30
2023-02-03T00:14:15.250Z,2.34
2023-02-03T00:16:42.146Z,2.39
2023-02-03T00:19:08.969Z,2.46
2023-02-03T00:21:35.633Z,2.54
2023-02-03T00:24:02.350Z,2.53
2023-02-03T00:26:29.430Z,2.52
2023-02-03T00:28:56.122Z,2.53
2023-02-03T00:31:24.988Z,2.50
2023-02-03T00:33:57.040Z,2.47
2023-02-03T00:36:25.515Z,2.46
2023-02-03T00:38:52.486Z,2.40
2023-02-03T00:41:20.256Z,2.32
2023-02-03T00:43:47.452Z,2.32
2023-02-03T00:46:14.453Z,2.30
2023-02-03T00:48:42.388Z,2.27
2023-02-03T00:51:09.288Z,2.22
2023-02-03T00:53:36.052Z,2.19
2023-02-03T00:56:02.854Z,2.17
2023-02-03T00:58:29.575Z,2.17
2023-02-03T01:00:57.274Z,2.15
2023-02-03T01:03:24.251Z,2.14
2023-02-03T01:05:51.213Z,2.08
2023-02-03T01:08:18.168Z,2.08
2023-02-03T01:10:45.104Z,2.02
2023-02-03T01:13:11.828Z,1.99
2023-02-03T01:15:38.672Z,1.99
2023-02-03T01:18:05.567Z,1.98
2023-02-03T01:20:32.375Z,1.93
2023-02-03T01:22:59.410Z,1.92
2023-02-03T01:25:26.194Z,1.92
2023-02-03T01:27:53.121Z,1.91
2023-02-03T01:30:20.001Z,1.95
2023-02-03T01:32:48.431Z,1.92
2023-02-03T01:35:15.230Z,1.94
2023-02-03T01:37:42.003Z,1.91
2023-02-03T01:40:09.459Z,1.90
2023-02-03T01:42:36.261Z,1.90
2023-02-03T01:45:03.087Z,1.91
2023-02-03T01:47:53.896Z,1.94
2023-02-03T01:50:31.897Z,1.97
2023-02-03T01:53:02.853Z,1.95
2023-02-03T01:55:44.100Z,1.96
2023-02-03T01:58:23.699Z,2.00
2023-02-03T02:00:50.677Z,2.02
2023-02-03T02:03:20.955Z,2.10
2023-02-03T02:05:53.314Z,2.10
2023-02-03T02:08:22.744Z,2.15
2023-02-03T02:10:50.421Z,2.14
2023-02-03T02:13:18.593Z,2.19
2023-02-03T02:16:03.455Z,2.23
2023-02-03T02:18:39.267Z,2.27
2023-02-03T02:21:38.003Z,2.25
2023-02-03T02:24:32.235Z,2.27
2023-02-03T02:27:26.991Z,2.32
2023-02-03T02:30:25.232Z,2.29
2023-02-03T02:33:11.866Z,2.30
2023-02-03T02:35:50.439Z,2.35
2023-02-03T02:38:54.745Z,2.42
2023-02-03T02:41:44.267Z,2.49
2023-02-03T02:44:36.433Z,2.53
2023-02-03T02:47:13.197Z,2.62
2023-02-03T02:49:56.587Z,2.69
2023-02-03T02:52:25.129Z,2.66
2023-02-03T02:54:55.172Z,2.70
2023-02-03T02:57:25.680Z,2.72
2023-02-03T02:59:53.752Z,2.78
2023-02-03T03:02:20.652Z,2.83
2023-02-03T03:04:49.793Z,2.86
2023-02-03T03:07:27.031Z,2.89
2023-02-03T03:10:00.931Z,2.95
2023-02-03T03:12:32.315Z,2.96
2023-02-03T03:15:04.565Z,2.99
2023-02-03T03:17:34.957Z,3.01
2023-02-03T03:20:07.154Z,3.03
2023-02-03T03:22:38.666Z,3.04
2023-02-03T03:25:13.266Z,3.06
2023-02-03T03:27:48.695Z,3.10
2023-02-03T03:30:22.945Z,3.12
2023-02-03T03:32:50.704Z,3.14
2023-02-03T03:35:17.892Z,3.19
2023-02-03T03:37:51.715Z,3.29
2023-02-03T03:40:54.870Z,3.36
2023-02-03T03:43:28.136Z,3.42
2023-02-03T03:46:10.452Z,3.48
2023-02-03T03:48:40.591Z,3.56
2023-02-03T03:51:19.758Z,3.70
2023-02-03T03:53:48.894Z,3.85
2023-02-03T03:56:22.508Z,3.90
2023-02-03T03:58:51.892Z,4.00
2023-02-03T04:01:19.736Z,4.05
2023-02-03T04:03:55.506Z,4.14
2023-02-03T04:06:22.191Z,4.20
2023-02-03T04:08:48.853Z,4.30
2023-02-03T04:11:35.767Z,4.42
2023-02-03T04:14:02.446Z,4.45
2023-02-03T04:16:29.206Z,4.54
2023-02-03T04:18:56.161Z,4.64
2023-02-03T04:21:22.899Z,4.76
2023-02-03T04:23:50.692Z,4.81
2023-02-03T04:26:18.223Z,4.94
2023-02-03T04:28:44.940Z,5.10
2023-02-03T04:31:11.697Z,5.20
2023-02-03T04:33:38.565Z,5.32
2023-02-03T04:36:05.560Z,5.45
2023-02-03T04:38:33.346Z,5.54
2023-02-03T04:41:00.111Z,5.66
2023-02-03T04:43:27.032Z,5.74
2023-02-03T04:45:53.844Z,5.82
2023-02-03T04:48:20.571Z,5.91
2023-02-03T04:50:47.356Z,6.01
2023-02-03T04:53:15.919Z,6.01
2023-02-03T04:55:47.624Z,6.13
2023-02-03T04:58:14.515Z,6.15
2023-02-03T05:00:41.292Z,6.25
2023-02-03T05:03:08.102Z,6.28
2023-02-03T05:05:34.835Z,6.31
2023-02-03T05:08:01.466Z,6.34
2023-02-03T05:10:28.515Z,6.38
2023-02-03T05:12:55.652Z,6.39
2023-02-03T05:15:22.571Z,6.44
2023-02-03T05:17:52.313Z,6.48
2023-02-03T05:20:19.358Z,6.48
2023-02-03T05:22:46.411Z,6.52
2023-02-03T05:25:13.437Z,6.48
2023-02-03T05:27:41.287Z,6.54
2023-02-03T05:30:10.033Z,6.55
2023-02-03T05:32:36.791Z,6.57
2023-02-03T05:35:03.424Z,6.60
2023-02-03T05:37:30.118Z,6.58
2023-02-03T05:40:16.765Z,6.63
2023-02-03T05:42:49.939Z,6.67
2023-02-03T05:45:17.443Z,6.69
2023-02-03T05:47:44.122Z,6.70
2023-02-03T05:50:11.037Z,6.70
2023-02-03T05:52:37.823Z,6.70
2023-02-03T05:55:04.806Z,6.73
2023-02-03T05:57:32.407Z,6.72
2023-02-03T05:59:59.312Z,6.76
2023-02-03T06:02:25.988Z,6.78
2023-02-03T06:04:52.734Z,6.80
2023-02-03T06:07:19.505Z,6.80
2023-02-03T06:09:46.159Z,6.81
2023-02-03T06:12:12.868Z,6.80
2023-02-03T06:14:39.767Z,6.80
2023-02-03T06:17:06.415Z,6.76
2023-02-03T06:19:33.107Z,6.78
2023-02-03T06:21:59.891Z,6.84
2023-02-03T06:24:26.599Z,6.82
2023-02-03T06:26:53.267Z,6.81
2023-02-03T06:29:20.059Z,6.83
2023-02-03T06:31:46.885Z,6.86
2023-02-03T06:34:13.859Z,6.86
2023-02-03T06:36:40.583Z,6.86
2023-02-03T06:39:07.409Z,6.89
2023-02-03T06:41:34.052Z,6.88
2023-02-03T06:44:01.135Z,6.89
2023-02-03T06:46:30.132Z,6.89
2023-02-03T06:48:57.183Z,6.94
2023-02-03T06:51:24.887Z,6.91
2023-02-03T06:53:51.935Z,6.95
2023-02-03T06:56:18.572Z,6.91
2023-02-03T06:58:45.518Z,6.94
2023-02-03T07:01:12.244Z,6.91
2023-02-03T07:03:38.993Z,6.96
2023-02-03T07:06:06.066Z,6.94
2023-02-03T07:08:32.723Z,7.01
2023-02-03T07:10:59.493Z,7.01
2023-02-03T07:13:26.231Z,7.01
2023-02-03T07:15:53.089Z,7.00
2023-02-03T07:18:45.833Z,7.00
2023-02-03T07:21:11.598Z,7.00
2023-02-03T07:23:38.319Z,7.07
2023-02-03T07:26:06.884Z,7.07
2023-02-03T07:28:37.354Z,7.07
2023-02-03T07:31:04.955Z,7.64
2023-02-03T07:33:32.026Z,7.55
2023-02-03T07:35:59.801Z,8.00
2023-02-03T07:38:27.908Z,7.82
2023-02-03T07:40:55.219Z,7.93
2023-02-03T07:43:22.316Z,7.72
2023-02-03T07:45:49.284Z,7.94
2023-02-03T07:48:16.461Z,7.93
2023-02-03T07:50:43.313Z,7.50
2023-02-03T07:53:10.001Z,7.41
2023-02-03T07:55:40.229Z,7.40
2023-02-03T07:58:07.182Z,7.37
2023-02-03T08:00:34.705Z,7.34
2023-02-03T08:03:01.675Z,7.32
2023-02-03T08:05:30.152Z,7.31
2023-02-03T08:07:57.979Z,7.33
2023-02-03T08:10:25.015Z,7.35
2023-02-03T08:12:56.168Z,7.34
2023-02-03T08:15:22.936Z,7.33
2023-02-03T08:17:50.275Z,7.32
2023-02-03T08:20:17.716Z,7.29
2023-02-03T08:22:45.065Z,7.29
2023-02-03T08:25:12.104Z,7.28
2023-02-03T08:27:39.551Z,7.17
2023-02-03T08:30:08.357Z,7.17
2023-02-03T08:32:35.266Z,7.12
2023-02-03T08:35:02.607Z,7.07
2023-02-03T08:37:31.744Z,7.11
2023-02-03T08:39:59.292Z,7.09
2023-02-03T08:42:26.862Z,7.12
2023-02-03T08:44:53.757Z,7.10
2023-02-03T08:47:20.739Z,7.12
2023-02-03T08:49:47.716Z,7.09
2023-02-03T08:52:17.427Z,7.13
2023-02-03T08:54:45.556Z,7.15
2023-02-03T08:57:13.072Z,7.37
2023-02-03T08:59:41.531Z,7.40
2023-02-03T09:02:14.224Z,7.48
2023-02-03T09:04:40.972Z,7.45
2023-02-03T09:07:07.638Z,7.48
2023-02-03T09:09:36.977Z,7.44
2023-02-03T09:12:05.674Z,7.44
2023-02-03T09:14:33.563Z,7.54
2023-02-03T09:17:01.954Z,7.74
2023-02-03T09:19:29.146Z,8.33
2023-02-03T09:21:57.213Z,8.37
2023-02-03T09:24:24.749Z,8.51
2023-02-03T09:26:51.508Z,8.66
2023-02-03T09:29:18.552Z,8.52
2023-02-03T09:31:46.983Z,8.32
2023-02-03T09:34:13.836Z,8.98
2023-02-03T09:36:41.987Z,8.83
2023-02-03T09:39:09.768Z,8.98
2023-02-03T09:42:05.173Z,9.36
2023-02-03T09:44:59.083Z,9.54
2023-02-03T09:47:30.756Z,9.11
2023-02-03T09:50:01.428Z,8.82
2023-02-03T09:52:33.901Z,9.09
2023-02-03T09:55:25.985Z,9.78
2023-02-03T09:58:00.459Z,9.81
2023-02-03T10:00:31.786Z,9.45
2023-02-03T10:03:21.787Z,9.90
2023-02-03T10:06:12.748Z,9.30
2023-02-03T10:09:02.601Z,9.15
2023-02-03T10:11:49.732Z,8.72
2023-02-03T10:14:25.674Z,8.78
2023-02-03T10:17:04.657Z,8.67
2023-02-03T10:20:00.501Z,8.44
2023-02-03T10:22:31.145Z,8.38
2023-02-03T10:25:06.224Z,8.44
2023-02-03T10:27:35.136Z,8.62
2023-02-03T10:30:24.368Z,8.57
2023-02-03T10:33:16.477Z,8.44
2023-02-03T10:35:50.739Z,8.48
2023-02-03T10:38:35.699Z,8.35
2023-02-03T10:41:03.495Z,8.39
2023-02-03T10:43:47.496Z,8.38
2023-02-03T10:46:21.120Z,8.46
2023-02-03T10:48:49.362Z,8.43
2023-02-03T10:51:27.240Z,8.39
2023-02-03T10:53:54.196Z,8.20
2023-02-03T10:56:38.458Z,8.14
2023-02-03T10:59:07.301Z,8.15
2023-02-03T11:01:43.742Z,8.20
2023-02-03T11:04:32.225Z,8.02
2023-02-03T11:07:01.883Z,8.08
2023-02-03T11:09:40.815Z,8.00
2023-02-03T11:12:16.748Z,8.15
2023-02-03T11:14:46.760Z,7.98
2023-02-03T11:17:23.041Z,7.98
2023-02-03T11:19:52.268Z,7.85
2023-02-03T11:22:33.075Z,7.84
2023-02-03T11:25:02.168Z,7.91
2023-02-03T11:27:33.678Z,7.88
2023-02-03T11:30:30.373Z,7.89
2023-02-03T11:33:01.631Z,7.92
2023-02-03T11:35:31.641Z,8.30
2023-02-03T11:38:00.826Z,8.60
2023-02-03T11:40:38.322Z,8.37
2023-02-03T11:43:15.950Z,8.31
2023-02-03T11:45:46.922Z,8.41
2023-02-03T11:48:22.002Z,8.46
2023-02-03T11:51:10.362Z,8.35
2023-02-03T11:53:57.231Z,8.13
2023-02-03T11:56:45.922Z,7.89
2023-02-03T11:59:38.112Z,8.85
2023-02-03T12:02:42.455Z,9.12
2023-02-03T12:05:43.225Z,8.98
2023-02-03T12:08:18.593Z,8.90
2023-02-03T12:11:04.928Z,8.63
2023-02-03T12:14:03.080Z,8.94
2023-02-03T12:16:29.817Z,9.02
2023-02-03T12:19:02.091Z,8.94
2023-02-03T12:21:43.458Z,9.16
2023-02-03T12:24:40.297Z,9.10
2023-02-03T12:27:32.108Z,9.52
2023-02-03T12:30:05.219Z,9.40
2023-02-03T12:32:48.432Z,9.50
2023-02-03T12:35:27.551Z,9.25
2023-02-03T12:38:03.520Z,9.40
2023-02-03T12:40:44.407Z,9.94
2023-02-03T12:43:20.238Z,9.98
2023-02-03T12:46:01.942Z,10.07
2023-02-03T12:48:36.866Z,9.76
2023-02-03T12:51:10.907Z,9.26
2023-02-03T12:53:42.875Z,9.19
2023-02-03T12:56:14.732Z,8.96
2023-02-03T12:58:44.816Z,8.86
2023-02-03T13:01:34.824Z,8.68
2023-02-03T13:04:06.482Z,8.77
2023-02-03T13:07:11.262Z,8.61
2023-02-03T13:09:39.836Z,8.47
2023-02-03T13:12:29.561Z,8.34
2023-02-03T13:15:24.796Z,8.20
2023-02-03T13:18:08.000Z,8.07
2023-02-03T13:20:37.098Z,8.05
2023-02-03T13:23:07.906Z,7.94
2023-02-03T13:25:49.896Z,8.02
2023-02-03T13:28:44.957Z,7.85
2023-02-03T13:31:30.527Z,7.88
2023-02-03T13:34:09.282Z,7.83
2023-02-03T13:37:05.467Z,7.75
2023-02-03T13:40:00.970Z,7.79
2023-02-03T13:42:33.552Z,7.71
2023-02-03T13:45:12.017Z,7.68
2023-02-03T13:47:39.590Z,7.62
2023-02-03T13:50:17.564Z,7.41
2023-02-03T13:53:13.817Z,7.42
2023-02-03T13:55:45.042Z,7.27
2023-02-03T13:58:26.597Z,7.34
2023-02-03T14:00:53.338Z,7.16
2023-02-03T14:03:43.853Z,7.16
2023-02-03T14:06:38.654Z,7.19
2023-02-03T14:09:24.030Z,7.09
2023-02-03T14:12:12.545Z,7.08
2023-02-03T14:14:39.315Z,7.07
2023-02-03T14:17:28.833Z,6.99
2023-02-03T14:19:55.812Z,6.97
2023-02-03T14:22:22.644Z,6.98
2023-02-03T14:24:50.021Z,7.05
2023-02-03T14:27:25.843Z,6.98
2023-02-03T14:30:09.525Z,6.98
2023-02-03T14:32:57.960Z,6.91
2023-02-03T14:35:38.651Z,6.88
2023-02-03T14:38:08.886Z,6.97
2023-02-03T14:40:50.674Z,6.97
2023-02-03T14:43:28.416Z,6.98
2023-02-03T14:46:04.821Z,6.94
2023-02-03T14:49:03.107Z,6.94
2023-02-03T14:51:48.529Z,7.02
2023-02-03T14:54:54.296Z,7.04
2023-02-03T14:57:39.972Z,7.07
2023-02-03T15:00:27.593Z,7.14
2023-02-03T15:03:19.446Z,7.18
2023-02-03T15:05:50.676Z,7.19
2023-02-03T15:08:36.734Z,7.20
2023-02-03T15:11:30.129Z,7.18
2023-02-03T15:14:14.989Z,7.23
2023-02-03T15:16:44.097Z,7.24
2023-02-03T15:19:24.252Z,7.15
2023-02-03T15:21:51.067Z,7.14
2023-02-03T15:24:22.972Z,7.12
2023-02-03T15:26:55.582Z,7.12
2023-02-03T15:29:27.498Z,7.16
2023-02-03T15:32:00.717Z,7.20
2023-02-03T15:34:32.768Z,7.16
2023-02-03T15:37:06.538Z,7.17
2023-02-03T15:40:14.623Z,7.15
2023-02-03T15:43:03.083Z,7.18
2023-02-03T15:45:35.834Z,7.19
2023-02-03T15:48:17.097Z,7.22
2023-02-03T15:50:49.660Z,7.14
2023-02-03T15:53:27.643Z,7.12
2023-02-03T15:55:58.625Z,7.07
2023-02-03T15:58:28.842Z,7.13
2023-02-03T16:01:18.014Z,7.15
2023-02-03T16:03:53.113Z,7.24
2023-02-03T16:06:27.492Z,7.17
2023-02-03T16:08:55.555Z,7.20
2023-02-03T16:11:22.572Z,7.20
2023-02-03T16:13:49.236Z,7.14
2023-02-03T16:16:21.463Z,7.19
2023-02-03T16:18:57.408Z,7.19
2023-02-03T16:21:36.213Z,7.11
2023-02-03T16:24:05.763Z,7.15
2023-02-03T16:26:34.522Z,7.20
2023-02-03T16:29:22.774Z,7.12
2023-02-03T16:32:08.710Z,7.04
2023-02-03T16:34:54.054Z,7.14
2023-02-03T16:37:45.572Z,7.10
2023-02-03T16:40:33.180Z,7.02
2023-02-03T16:43:18.618Z,7.01
2023-02-03T16:46:04.081Z,7.00
2023-02-03T16:48:49.372Z,7.01
2023-02-03T16:51:17.374Z,6.96
2023-02-03T16:53:45.835Z,6.88
2023-02-03T16:56:13.669Z,6.89
2023-02-03T16:58:40.766Z,6.90
2023-02-03T17:01:09.510Z,6.83
2023-02-03T17:03:37.519Z,6.73
2023-02-03T17:06:08.288Z,6.79
2023-02-03T17:08:35.813Z,6.61
2023-02-03T17:11:23.316Z,6.59
2023-02-03T17:13:50.720Z,6.60
2023-02-03T17:16:20.653Z,6.56
2023-02-03T17:18:48.048Z,6.57
2023-02-03T17:21:20.816Z,6.45
2023-02-03T17:23:49.608Z,6.53
2023-02-03T17:26:18.256Z,6.52
2023-02-03T17:28:45.231Z,6.51
2023-02-03T17:31:15.107Z,6.50
2023-02-03T17:33:42.393Z,6.41
2023-02-03T17:36:21.544Z,6.41
2023-02-03T17:55:19.392Z,6.04
2023-02-03T17:57:46.718Z,5.84
2023-02-03T18:00:14.223Z,5.81
2023-02-03T18:02:43.106Z,5.66
2023-02-03T18:05:11.531Z,5.55
2023-02-03T18:07:38.809Z,5.51
2023-02-03T18:10:06.133Z,5.48
2023-02-03T18:12:32.889Z,5.45
2023-02-03T18:14:59.680Z,5.39
2023-02-03T18:17:26.706Z,5.34
2023-02-03T18:19:56.132Z,5.15
2023-02-03T18:22:23.800Z,4.93
2023-02-03T18:24:55.013Z,4.86
2023-02-03T18:27:21.746Z,4.74
2023-02-03T18:29:50.317Z,4.74
2023-02-03T18:32:17.573Z,4.59
2023-02-03T18:34:44.425Z,4.56
2023-02-03T18:37:12.313Z,4.47
2023-02-03T18:39:39.506Z,4.45
2023-02-03T18:42:07.275Z,4.35
2023-02-03T18:44:34.546Z,4.31
2023-02-03T18:47:07.485Z,4.28
2023-02-03T18:49:35.771Z,4.23
2023-02-03T18:52:02.835Z,4.28
2023-02-03T18:54:30.308Z,4.16
2023-02-03T18:56:58.941Z,4.09
2023-02-03T18:59:26.092Z,4.04
2023-02-03T19:01:52.953Z,4.00
2023-02-03T19:04:20.228Z,4.06
2023-02-03T19:06:47.702Z,3.94
2023-02-03T19:09:17.064Z,4.00
2023-02-03T19:11:44.571Z,3.98
2023-02-03T19:14:13.337Z,3.97
2023-02-03T19:16:40.293Z,3.94
2023-02-03T19:19:07.065Z,3.90
2023-02-03T19:21:33.936Z,4.00
2023-02-03T19:24:01.445Z,4.09
2023-02-03T19:26:28.192Z,4.00
2023-02-03T19:28:56.021Z,4.01
2023-02-03T19:31:23.596Z,4.01
2023-02-03T19:33:50.810Z,4.13
2023-02-03T19:36:17.736Z,4.08
2023-02-03T19:38:46.319Z,4.09
2023-02-03T19:41:13.250Z,4.12
2023-02-03T19:43:40.444Z,4.09
2023-02-03T19:46:08.560Z,4.08
2023-02-03T19:48:42.343Z,4.06
2023-02-03T19:51:11.191Z,4.09
2023-02-03T19:53:38.324Z,4.08
2023-02-03T19:56:05.518Z,4.16
2023-02-03T19:58:32.682Z,4.13
2023-02-03T20:00:59.337Z,4.17
2023-02-03T20:03:26.798Z,4.18
2023-02-03T20:05:53.507Z,4.09
2023-02-03T20:08:20.297Z,4.07
2023-02-03T20:10:47.400Z,4.09
2023-02-03T20:13:14.964Z,4.08
2023-02-03T20:15:42.508Z,4.06
2023-02-03T20:18:09.305Z,3.99
2023-02-03T20:20:37.138Z,4.00
2023-02-03T20:23:03.871Z,4.06
2023-02-03T20:25:30.998Z,4.05
2023-02-03T20:27:59.590Z,4.05
2023-02-03T20:30:26.342Z,4.09
2023-02-03T20:32:54.660Z,4.07
2023-02-03T20:35:23.589Z,4.00
2023-02-03T20:37:50.409Z,4.15
2023-02-03T20:40:18.772Z,4.14
2023-02-03T20:42:45.571Z,4.07
2023-02-03T20:45:20.860Z,4.17
2023-02-03T20:47:48.359Z,4.05
2023-02-03T20:50:18.480Z,4.09
2023-02-03T20:52:50.348Z,4.01
2023-02-03T20:55:20.324Z,4.07
2023-02-03T20:57:50.540Z,4.06
2023-02-03T21:00:20.497Z,4.08
2023-02-03T21:03:06.875Z,4.19
2023-02-03T21:05:45.320Z,4.02
2023-02-03T21:08:19.301Z,4.03
2023-02-03T21:10:48.060Z,4.05
2023-02-03T21:13:26.265Z,4.07
2023-02-03T21:15:55.472Z,4.04
2023-02-03T21:18:35.968Z,4.00
2023-02-03T21:21:03.703Z,4.05
2023-02-03T21:23:42.232Z,4.07
2023-02-03T21:26:19.902Z,4.03
2023-02-03T21:28:55.184Z,3.92
2023-02-03T21:31:37.171Z,4.02
2023-02-03T21:34:30.526Z,4.03
2023-02-03T21:36:58.906Z,3.99
2023-02-03T21:39:32.510Z,4.00
2023-02-03T21:42:16.651Z,4.12
2023-02-03T21:44:44.584Z,4.02
2023-02-03T21:47:18.430Z,4.04
2023-02-03T21:49:45.315Z,4.05
2023-02-03T21:52:15.044Z,4.09
2023-02-03T21:54:44.211Z,4.08
2023-02-03T21:57:15.397Z,3.97
2023-02-03T21:59:46.650Z,4.02
2023-02-03T22:02:29.576Z,3.99
2023-02-03T22:04:58.531Z,3.98
2023-02-03T22:07:25.209Z,3.97
2023-02-03T22:09:51.902Z,4.01
2023-02-03T22:12:18.677Z,3.93
2023-02-03T22:14:45.487Z,3.94
2023-02-03T22:17:14.258Z,3.91
2023-02-03T22:19:41.297Z,3.94
2023-02-03T22:22:08.192Z,3.86
2023-02-03T22:24:35.010Z,3.94
2023-02-03T22:27:01.762Z,4.04
2023-02-03T22:29:28.511Z,4.06
2023-02-03T22:31:55.382Z,4.03
2023-02-03T22:34:23.270Z,3.93
2023-02-03T22:36:49.998Z,3.90
2023-02-03T22:39:16.837Z,3.91
2023-02-03T22:41:43.629Z,3.94
2023-02-03T22:44:15.931Z,3.90
2023-02-03T22:46:42.671Z,3.94
2023-02-03T22:49:10.479Z,4.05
2023-02-03T22:51:37.391Z,3.95
2023-02-03T22:54:04.362Z,3.95
2023-02-03T22:56:31.114Z,3.99
2023-02-03T22:58:57.838Z,4.04
2023-02-03T23:01:24.548Z,4.00
2023-02-03T23:03:51.291Z,3.99
2023-02-03T23:06:18.126Z,4.04
2023-02-03T23:08:45.076Z,3.97
2023-02-03T23:11:11.783Z,4.04
2023-02-03T23:13:38.862Z,3.95
2023-02-03T23:16:05.969Z,3.94
2023-02-03T23:18:32.632Z,3.95
2023-02-03T23:20:59.437Z,4.03
2023-02-03T23:23:26.220Z,3.93
2023-02-03T23:25:52.969Z,4.01
2023-02-03T23:28:19.896Z,3.90
2023-02-03T23:30:47.016Z,3.94
2023-02-03T23:33:13.819Z,3.89
2023-02-03T23:35:46.531Z,3.95
2023-02-03T23:38:17.764Z,4.00
2023-02-03T23:40:45.129Z,3.94
2023-02-03T23:43:11.894Z,4.02
2023-02-03T23:45:39.016Z,3.92
2023-02-03T23:48:06.696Z,3.91
2023-02-03T23:50:33.715Z,3.90
2023-02-03T23:53:00.591Z,3.84
2023-02-03T23:55:27.291Z,3.91
2023-02-03T23:57:53.970Z,3.93
